sensor_id;sensor_type;location;lat;lon;timestamp;pressure;altitude;pressure_sealevel;temperature;humidity
57232;BME280;43488;46.934;8.276;2023-08-06T00:01:19;96038.72;;;16.21;100.00
57232;BME280;43488;46.934;8.276;2023-08-06T00:03:49;96029.34;;;16.14;100.00
57232;BME280;43488;46.934;8.276;2023-08-06T00:06:17;96035.50;;;16.19;100.00
57232;BME280;43488;46.934;8.276;2023-08-06T00:08:44;96031.00;;;16.20;100.00
57232;BME280;43488;46.934;8.276;2023-08-06T00:11:12;96020.91;;;16.22;100.00
57232;BME280;43488;46.934;8.276;2023-08-06T00:13:40;96015.06;;;16.20;100.00
57232;BME280;43488;46.934;8.276;2023-08-06T00:16:12;96011.03;;;16.17;100.00
57232;BME280;43488;46.934;8.276;2023-08-06T00:18:40;96020.63;;;16.18;100.00
57232;BME280;43488;46.934;8.276;2023-08-06T00:21:08;96010.22;;;16.12;100.00
57232;BME280;43488;46.934;8.276;2023-08-06T00:23:35;96016.03;;;16.09;100.00
57232;BME280;43488;46.934;8.276;2023-08-06T00:26:02;96009.16;;;16.13;100.00
57232;BME280;43488;46.934;8.276;2023-08-06T00:28:30;96016.34;;;16.12;100.00
57232;BME280;43488;46.934;8.276;2023-08-06T00:30:57;96012.03;;;16.06;100.00
57232;BME280;43488;46.934;8.276;2023-08-06T00:33:25;96014.44;;;16.08;100.00
57232;BME280;43488;46.934;8.276;2023-08-06T00:35:52;95992.13;;;16.09;100.00
57232;BME280;43488;46.934;8.276;2023-08-06T00:38:19;95990.00;;;16.06;100.00
57232;BME280;43488;46.934;8.276;2023-08-06T00:40:47;95990.00;;;16.06;100.00
57232;BME280;43488;46.934;8.276;2023-08-06T00:43:14;95987.59;;;16.04;100.00
57232;BME280;43488;46.934;8.276;2023-08-06T00:45:41;96001.66;;;16.05;100.00
57232;BME280;43488;46.934;8.276;2023-08-06T00:48:10;95997.94;;;16.06;100.00
57232;BME280;43488;46.934;8.276;2023-08-06T00:50:37;95988.06;;;15.96;99.04
57232;BME280;43488;46.934;8.276;2023-08-06T00:53:05;95988.84;;;15.97;95.92
57232;BME280;43488;46.934;8.276;2023-08-06T00:55:33;95986.25;;;16.02;96.39
57232;BME280;43488;46.934;8.276;2023-08-06T00:58:01;95991.56;;;16.02;97.86
57232;BME280;43488;46.934;8.276;2023-08-06T01:00:29;95988.38;;;16.05;96.80
57232;BME280;43488;46.934;8.276;2023-08-06T01:02:56;95987.34;;;16.06;96.84
57232;BME280;43488;46.934;8.276;2023-08-06T01:05:24;95983.63;;;16.07;97.54
57232;BME280;43488;46.934;8.276;2023-08-06T01:08:12;95988.13;;;16.06;98.81
57232;BME280;43488;46.934;8.276;2023-08-06T01:11:22;95980.38;;;16.00;99.13
57232;BME280;43488;46.934;8.276;2023-08-06T01:14:02;95983.03;;;16.00;98.17
57232;BME280;43488;46.934;8.276;2023-08-06T01:16:33;95975.84;;;15.95;98.51
57232;BME280;43488;46.934;8.276;2023-08-06T01:19:00;95984.59;;;15.96;96.04
57232;BME280;43488;46.934;8.276;2023-08-06T01:21:28;95985.13;;;15.98;93.50
57232;BME280;43488;46.934;8.276;2023-08-06T01:23:56;95986.50;;;16.00;94.45
57232;BME280;43488;46.934;8.276;2023-08-06T01:26:44;95991.50;;;15.97;97.84
57232;BME280;43488;46.934;8.276;2023-08-06T01:29:41;95993.53;;;15.84;100.00
57232;BME280;43488;46.934;8.276;2023-08-06T01:32:12;95979.59;;;15.67;100.00
57232;BME280;43488;46.934;8.276;2023-08-06T01:34:44;95990.72;;;15.64;100.00
57232;BME280;43488;46.934;8.276;2023-08-06T01:37:12;95986.69;;;15.61;100.00
57232;BME280;43488;46.934;8.276;2023-08-06T01:39:43;95978.41;;;15.58;100.00
57232;BME280;43488;46.934;8.276;2023-08-06T01:42:11;95976.88;;;15.62;100.00
57232;BME280;43488;46.934;8.276;2023-08-06T01:44:39;95979.84;;;15.66;100.00
57232;BME280;43488;46.934;8.276;2023-08-06T01:47:06;95982.97;;;15.62;100.00
57232;BME280;43488;46.934;8.276;2023-08-06T01:49:34;95990.09;;;15.57;100.00
57232;BME280;43488;46.934;8.276;2023-08-06T01:52:01;95983.13;;;15.51;97.29
57232;BME280;43488;46.934;8.276;2023-08-06T01:54:29;95981.97;;;15.42;95.75
57232;BME280;43488;46.934;8.276;2023-08-06T01:56:57;95971.53;;;15.35;98.57
57232;BME280;43488;46.934;8.276;2023-08-06T01:59:25;95960.19;;;15.40;98.00
57232;BME280;43488;46.934;8.276;2023-08-06T02:01:53;95968.84;;;15.30;96.19
57232;BME280;43488;46.934;8.276;2023-08-06T02:04:20;95958.72;;;15.27;95.63
57232;BME280;43488;46.934;8.276;2023-08-06T02:06:47;95958.44;;;15.23;96.64
57232;BME280;43488;46.934;8.276;2023-08-06T02:09:15;95953.94;;;15.24;96.63
57232;BME280;43488;46.934;8.276;2023-08-06T02:11:42;95958.41;;;15.18;96.40
57232;BME280;43488;46.934;8.276;2023-08-06T02:14:09;95957.28;;;15.14;93.54
57232;BME280;43488;46.934;8.276;2023-08-06T02:16:37;95955.94;;;15.12;95.36
57232;BME280;43488;46.934;8.276;2023-08-06T02:19:04;95947.13;;;15.06;96.63
57232;BME280;43488;46.934;8.276;2023-08-06T02:21:31;95943.38;;;15.02;97.93
57232;BME280;43488;46.934;8.276;2023-08-06T02:23:59;95931.97;;;15.01;99.74
57232;BME280;43488;46.934;8.276;2023-08-06T02:26:26;95928.53;;;15.01;99.22
57232;BME280;43488;46.934;8.276;2023-08-06T02:28:53;95938.00;;;14.97;98.82
57232;BME280;43488;46.934;8.276;2023-08-06T02:31:21;95937.34;;;14.85;99.85
57232;BME280;43488;46.934;8.276;2023-08-06T02:33:48;95920.91;;;14.83;99.20
57232;BME280;43488;46.934;8.276;2023-08-06T02:36:15;95920.91;;;14.83;100.00
57232;BME280;43488;46.934;8.276;2023-08-06T02:38:43;95921.69;;;14.83;100.00
57232;BME280;43488;46.934;8.276;2023-08-06T02:41:10;95916.41;;;14.83;99.42
57232;BME280;43488;46.934;8.276;2023-08-06T02:43:42;95923.56;;;14.83;99.98
57232;BME280;43488;46.934;8.276;2023-08-06T02:46:10;95918.53;;;14.86;100.00
57232;BME280;43488;46.934;8.276;2023-08-06T02:48:38;95923.34;;;14.89;100.00
57232;BME280;43488;46.934;8.276;2023-08-06T02:51:06;95915.38;;;14.89;100.00
57232;BME280;43488;46.934;8.276;2023-08-06T02:53:33;95923.34;;;14.89;100.00
57232;BME280;43488;46.934;8.276;2023-08-06T02:56:00;95907.16;;;14.86;100.00
57232;BME280;43488;46.934;8.276;2023-08-06T02:58:28;95908.19;;;14.85;100.00
57232;BME280;43488;46.934;8.276;2023-08-06T03:01:04;95905.03;;;14.88;99.87
57232;BME280;43488;46.934;8.276;2023-08-06T03:03:32;95909.63;;;14.92;99.91
57232;BME280;43488;46.934;8.276;2023-08-06T03:06:00;95911.22;;;14.93;100.00
57232;BME280;43488;46.934;8.276;2023-08-06T03:08:28;95898.22;;;14.92;100.00
57232;BME280;43488;46.934;8.276;2023-08-06T03:10:56;95912.53;;;14.91;100.00
57232;BME280;43488;46.934;8.276;2023-08-06T03:13:23;95911.41;;;14.87;100.00
57232;BME280;43488;46.934;8.276;2023-08-06T03:15:56;95909.00;;;14.85;100.00
57232;BME280;43488;46.934;8.276;2023-08-06T03:18:25;95897.88;;;14.88;99.35
57232;BME280;43488;46.934;8.276;2023-08-06T03:20:55;95894.44;;;14.88;98.61
57232;BME280;43488;46.934;8.276;2023-08-06T03:23:23;95901.84;;;14.86;99.66
57232;BME280;43488;46.934;8.276;2023-08-06T03:25:51;95890.16;;;14.82;100.00
57232;BME280;43488;46.934;8.276;2023-08-06T03:28:18;95884.28;;;14.79;100.00
57232;BME280;43488;46.934;8.276;2023-08-06T03:30:46;95887.19;;;14.78;100.00
57232;BME280;43488;46.934;8.276;2023-08-06T03:33:13;95883.22;;;14.80;100.00
57232;BME280;43488;46.934;8.276;2023-08-06T03:35:40;95887.25;;;14.83;100.00
57232;BME280;43488;46.934;8.276;2023-08-06T03:38:07;95879.78;;;14.80;100.00
57232;BME280;43488;46.934;8.276;2023-08-06T03:40:35;95885.34;;;14.78;100.00
57232;BME280;43488;46.934;8.276;2023-08-06T03:43:03;95886.94;;;14.79;99.93
57232;BME280;43488;46.934;8.276;2023-08-06T03:45:30;95881.09;;;14.77;100.00
57232;BME280;43488;46.934;8.276;2023-08-06T03:47:57;95885.59;;;14.77;98.93
57232;BME280;43488;46.934;8.276;2023-08-06T03:50:25;95896.72;;;14.79;97.94
57232;BME280;43488;46.934;8.276;2023-08-06T03:52:53;95876.34;;;14.79;97.27
57232;BME280;43488;46.934;8.276;2023-08-06T03:55:21;95875.00;;;14.77;99.74
57232;BME280;43488;46.934;8.276;2023-08-06T03:57:49;95877.63;;;14.77;100.00
57232;BME280;43488;46.934;8.276;2023-08-06T04:00:18;95895.13;;;14.78;98.33
57232;BME280;43488;46.934;8.276;2023-08-06T04:02:45;95896.47;;;14.80;96.79
57232;BME280;43488;46.934;8.276;2023-08-06T04:05:14;95901.84;;;14.86;97.49
57232;BME280;43488;46.934;8.276;2023-08-06T04:07:42;95906.63;;;14.89;96.23
57232;BME280;43488;46.934;8.276;2023-08-06T04:10:11;95901.91;;;14.91;100.00
57232;BME280;43488;46.934;8.276;2023-08-06T04:12:38;95897.88;;;14.88;98.68
57232;BME280;43488;46.934;8.276;2023-08-06T04:15:08;95892.34;;;14.90;98.18
57232;BME280;43488;46.934;8.276;2023-08-06T04:17:36;95900.28;;;14.90;98.35
57232;BME280;43488;46.934;8.276;2023-08-06T04:20:04;95895.31;;;14.93;97.47
57232;BME280;43488;46.934;8.276;2023-08-06T04:22:31;95893.19;;;14.95;98.03
57232;BME280;43488;46.934;8.276;2023-08-06T04:25:02;95896.41;;;14.97;96.54
57232;BME280;43488;46.934;8.276;2023-08-06T04:27:32;95892.34;;;14.90;95.57
57232;BME280;43488;46.934;8.276;2023-08-06T04:30:00;95892.66;;;14.93;96.89
57232;BME280;43488;46.934;8.276;2023-08-06T04:32:27;95897.16;;;14.93;99.02
57232;BME280;43488;46.934;8.276;2023-08-06T04:34:56;95904.09;;;14.99;98.29
57232;BME280;43488;46.934;8.276;2023-08-06T04:37:23;95900.44;;;15.00;98.22
57232;BME280;43488;46.934;8.276;2023-08-06T04:39:51;95894.28;;;14.99;96.63
57232;BME280;43488;46.934;8.276;2023-08-06T04:42:19;95891.72;;;15.04;95.58
57232;BME280;43488;46.934;8.276;2023-08-06T04:44:46;95892.00;;;15.08;92.73
57232;BME280;43488;46.934;8.276;2023-08-06T04:47:14;95895.50;;;15.14;94.33
57232;BME280;43488;46.934;8.276;2023-08-06T04:49:41;95899.25;;;15.18;93.49
57232;BME280;43488;46.934;8.276;2023-08-06T04:52:08;95901.91;;;15.18;94.83
57232;BME280;43488;46.934;8.276;2023-08-06T04:54:35;95896.59;;;15.18;97.09
57232;BME280;43488;46.934;8.276;2023-08-06T04:57:03;95895.25;;;15.15;96.91
57232;BME280;43488;46.934;8.276;2023-08-06T04:59:33;95908.50;;;15.15;96.07
57232;BME280;43488;46.934;8.276;2023-08-06T05:02:01;95908.22;;;15.12;97.15
57232;BME280;43488;46.934;8.276;2023-08-06T05:04:29;95925.97;;;15.11;96.97
57232;BME280;43488;46.934;8.276;2023-08-06T05:06:58;95932.63;;;15.14;97.07
57232;BME280;43488;46.934;8.276;2023-08-06T05:09:25;95933.41;;;15.14;96.91
57232;BME280;43488;46.934;8.276;2023-08-06T05:11:53;95944.78;;;15.10;96.42
57232;BME280;43488;46.934;8.276;2023-08-06T05:14:20;95951.63;;;15.05;96.43
57232;BME280;43488;46.934;8.276;2023-08-06T05:16:47;95952.97;;;15.08;96.09
57232;BME280;43488;46.934;8.276;2023-08-06T05:19:14;95947.97;;;15.12;95.32
57232;BME280;43488;46.934;8.276;2023-08-06T05:21:42;95953.03;;;15.13;93.30
57232;BME280;43488;46.934;8.276;2023-08-06T05:24:09;95954.13;;;15.17;93.02
57232;BME280;43488;46.934;8.276;2023-08-06T05:26:37;95954.19;;;15.22;91.94
57232;BME280;43488;46.934;8.276;2023-08-06T05:29:04;95947.56;;;15.25;90.87
57232;BME280;43488;46.934;8.276;2023-08-06T05:31:31;95957.44;;;15.29;90.98
57232;BME280;43488;46.934;8.276;2023-08-06T05:33:58;95955.63;;;15.35;89.05
57232;BME280;43488;46.934;8.276;2023-08-06T05:36:28;95938.44;;;15.38;87.66
57232;BME280;43488;46.934;8.276;2023-08-06T05:38:55;95951.47;;;15.44;87.15
57232;BME280;43488;46.934;8.276;2023-08-06T05:41:23;95952.00;;;15.41;90.61
57232;BME280;43488;46.934;8.276;2023-08-06T05:43:58;95958.94;;;15.47;87.93
57232;BME280;43488;46.934;8.276;2023-08-06T05:46:25;95963.75;;;15.50;88.85
57232;BME280;43488;46.934;8.276;2023-08-06T05:48:53;95965.84;;;15.48;88.25
57232;BME280;43488;46.934;8.276;2023-08-06T05:51:20;95969.81;;;15.46;87.57
57232;BME280;43488;46.934;8.276;2023-08-06T05:53:47;95977.81;;;15.51;86.99
57232;BME280;43488;46.934;8.276;2023-08-06T05:56:16;95992.66;;;15.52;84.49
57232;BME280;43488;46.934;8.276;2023-08-06T05:58:43;95995.38;;;15.57;85.25
57232;BME280;43488;46.934;8.276;2023-08-06T06:01:10;95995.22;;;15.63;83.08
57232;BME280;43488;46.934;8.276;2023-08-06T06:03:38;96006.13;;;15.67;86.13
57232;BME280;43488;46.934;8.276;2023-08-06T06:06:05;96007.22;;;15.71;87.97
57232;BME280;43488;46.934;8.276;2023-08-06T06:08:34;96014.44;;;15.76;92.23
57232;BME280;43488;46.934;8.276;2023-08-06T06:11:01;96008.81;;;15.72;91.37
57232;BME280;43488;46.934;8.276;2023-08-06T06:13:29;96014.88;;;15.68;86.88
57232;BME280;43488;46.934;8.276;2023-08-06T06:15:57;96021.75;;;15.63;89.05
57232;BME280;43488;46.934;8.276;2023-08-06T06:18:24;96031.84;;;15.67;90.44
57232;BME280;43488;46.934;8.276;2023-08-06T06:20:52;96041.97;;;15.70;91.54
57232;BME280;43488;46.934;8.276;2023-08-06T06:23:21;96048.56;;;15.67;84.90
57232;BME280;43488;46.934;8.276;2023-08-06T06:25:50;96054.41;;;15.64;72.23
57232;BME280;43488;46.934;8.276;2023-08-06T06:28:20;96063.97;;;15.70;73.47
57232;BME280;43488;46.934;8.276;2023-08-06T06:30:49;96055.75;;;15.67;74.92
57232;BME280;43488;46.934;8.276;2023-08-06T06:33:16;96064.50;;;15.67;77.74
57232;BME280;43488;46.934;8.276;2023-08-06T06:35:45;96069.81;;;15.67;80.13
57232;BME280;43488;46.934;8.276;2023-08-06T06:38:12;96070.41;;;15.74;83.12
57232;BME280;43488;46.934;8.276;2023-08-06T06:40:39;96073.72;;;15.86;85.93
57232;BME280;43488;46.934;8.276;2023-08-06T06:43:07;96076.38;;;15.86;89.39
57232;BME280;43488;46.934;8.276;2023-08-06T06:45:34;96077.41;;;15.85;90.35
57232;BME280;43488;46.934;8.276;2023-08-06T06:48:01;96081.16;;;15.89;89.42
57232;BME280;43488;46.934;8.276;2023-08-06T06:50:29;96095.00;;;15.91;81.43
57232;BME280;43488;46.934;8.276;2023-08-06T06:52:56;96101.16;;;15.97;79.43
57232;BME280;43488;46.934;8.276;2023-08-06T06:55:23;96104.50;;;15.87;75.26
57232;BME280;43488;46.934;8.276;2023-08-06T06:57:51;96098.75;;;15.96;74.92
57232;BME280;43488;46.934;8.276;2023-08-06T07:00:18;96098.91;;;16.11;77.80
57232;BME280;43488;46.934;8.276;2023-08-06T07:02:45;96095.28;;;16.22;82.67
57232;BME280;43488;46.934;8.276;2023-08-06T07:05:13;96097.16;;;16.27;78.83
57232;BME280;43488;46.934;8.276;2023-08-06T07:07:40;96104.91;;;16.28;76.50
57232;BME280;43488;46.934;8.276;2023-08-06T07:10:08;96104.31;;;16.21;76.51
57232;BME280;43488;46.934;8.276;2023-08-06T07:12:35;96113.59;;;16.24;71.47
57232;BME280;43488;46.934;8.276;2023-08-06T07:15:07;96095.28;;;16.22;67.92
57232;BME280;43488;46.934;8.276;2023-08-06T07:17:35;96105.66;;;16.24;66.54
57232;BME280;43488;46.934;8.276;2023-08-06T07:20:04;96095.78;;;16.19;66.23
57232;BME280;43488;46.934;8.276;2023-08-06T07:22:33;96100.88;;;16.26;67.27
57232;BME280;43488;46.934;8.276;2023-08-06T07:25:00;96098.28;;;16.31;70.24
57232;BME280;43488;46.934;8.276;2023-08-06T07:27:27;96099.34;;;16.35;72.65
57232;BME280;43488;46.934;8.276;2023-08-06T07:29:54;96112.63;;;16.35;72.46
57232;BME280;43488;46.934;8.276;2023-08-06T07:32:23;96129.38;;;16.35;73.26
57232;BME280;43488;46.934;8.276;2023-08-06T07:34:51;96126.72;;;16.35;71.17
57232;BME280;43488;46.934;8.276;2023-08-06T07:37:23;96121.41;;;16.35;68.39
57232;BME280;43488;46.934;8.276;2023-08-06T07:39:50;96121.22;;;16.42;69.20
57232;BME280;43488;46.934;8.276;2023-08-06T07:42:18;96120.94;;;16.38;69.81
57232;BME280;43488;46.934;8.276;2023-08-06T07:44:56;96118.66;;;16.25;67.52
57232;BME280;43488;46.934;8.276;2023-08-06T07:47:23;96122.97;;;16.31;67.74
57232;BME280;43488;46.934;8.276;2023-08-06T07:49:51;96122.63;;;16.23;67.38
57232;BME280;43488;46.934;8.276;2023-08-06T07:52:18;96120.72;;;16.18;64.89
57232;BME280;43488;46.934;8.276;2023-08-06T07:54:46;96126.59;;;16.20;66.01
57232;BME280;43488;46.934;8.276;2023-08-06T07:57:13;96138.03;;;16.20;67.23
57232;BME280;43488;46.934;8.276;2023-08-06T07:59:42;96130.06;;;16.20;68.54
57232;BME280;43488;46.934;8.276;2023-08-06T08:02:09;96123.44;;;16.23;70.16
57232;BME280;43488;46.934;8.276;2023-08-06T08:04:36;96127.69;;;16.24;70.27
57232;BME280;43488;46.934;8.276;2023-08-06T08:07:04;96129.25;;;16.20;68.90
57232;BME280;43488;46.934;8.276;2023-08-06T08:09:34;96127.66;;;16.19;69.50
57232;BME280;43488;46.934;8.276;2023-08-06T08:12:01;96128.47;;;16.19;68.99
57232;BME280;43488;46.934;8.276;2023-08-06T08:14:29;96131.41;;;16.23;70.57
57232;BME280;43488;46.934;8.276;2023-08-06T08:17:03;96139.91;;;16.25;70.69
57232;BME280;43488;46.934;8.276;2023-08-06T08:19:31;96137.31;;;16.30;71.91
57232;BME280;43488;46.934;8.276;2023-08-06T08:21:59;96132.59;;;16.37;73.00
57232;BME280;43488;46.934;8.276;2023-08-06T08:24:26;96143.00;;;16.44;72.42
57232;BME280;43488;46.934;8.276;2023-08-06T08:26:54;96134.31;;;16.54;72.36
57232;BME280;43488;46.934;8.276;2023-08-06T08:29:21;96134.91;;;16.61;73.45
57232;BME280;43488;46.934;8.276;2023-08-06T08:31:49;96139.97;;;16.62;74.54
57232;BME280;43488;46.934;8.276;2023-08-06T08:34:17;96133.91;;;16.67;74.23
57232;BME280;43488;46.934;8.276;2023-08-06T08:36:45;96132.63;;;16.69;71.70
57232;BME280;43488;46.934;8.276;2023-08-06T08:39:14;96132.84;;;16.68;67.33
57232;BME280;43488;46.934;8.276;2023-08-06T08:41:42;96126.41;;;16.64;62.60
57232;BME280;43488;46.934;8.276;2023-08-06T08:44:11;96133.91;;;16.67;63.34
57232;BME280;43488;46.934;8.276;2023-08-06T08:46:41;96124.00;;;16.62;62.21
57232;BME280;43488;46.934;8.276;2023-08-06T08:49:11;96127.84;;;16.71;59.50
57232;BME280;43488;46.934;8.276;2023-08-06T08:51:39;96140.31;;;16.71;58.33
57232;BME280;43488;46.934;8.276;2023-08-06T08:54:07;96147.25;;;16.72;57.87
57232;BME280;43488;46.934;8.276;2023-08-06T08:56:35;96154.16;;;16.73;59.17
57232;BME280;43488;46.934;8.276;2023-08-06T08:59:02;96146.50;;;16.76;57.92
57232;BME280;43488;46.934;8.276;2023-08-06T09:01:30;96145.25;;;16.89;58.64
57232;BME280;43488;46.934;8.276;2023-08-06T09:03:59;96153.88;;;17.06;58.07
57232;BME280;43488;46.934;8.276;2023-08-06T09:06:28;96153.38;;;17.15;58.39
57232;BME280;43488;46.934;8.276;2023-08-06T09:09:12;96160.31;;;17.16;60.02
57232;BME280;43488;46.934;8.276;2023-08-06T09:11:45;96158.50;;;17.21;61.34
57232;BME280;43488;46.934;8.276;2023-08-06T09:14:16;96164.03;;;17.15;59.45
57232;BME280;43488;46.934;8.276;2023-08-06T09:16:44;96165.63;;;17.16;58.93
57232;BME280;43488;46.934;8.276;2023-08-06T09:19:12;96170.34;;;17.09;58.58
57232;BME280;43488;46.934;8.276;2023-08-06T09:21:40;96166.91;;;17.08;58.47
57232;BME280;43488;46.934;8.276;2023-08-06T09:24:12;96181.59;;;17.16;58.46
57232;BME280;43488;46.934;8.276;2023-08-06T09:26:41;96174.44;;;17.21;57.89
57232;BME280;43488;46.934;8.276;2023-08-06T09:29:11;96187.69;;;17.16;57.48
57232;BME280;43488;46.934;8.276;2023-08-06T09:34:19;96181.38;;;17.22;59.36
57232;BME280;43488;46.934;8.276;2023-08-06T09:36:51;96187.88;;;17.42;59.38
57232;BME280;43488;46.934;8.276;2023-08-06T09:39:24;96185.25;;;17.52;61.28
57232;BME280;43488;46.934;8.276;2023-08-06T09:42:00;96189.50;;;17.48;57.60
57232;BME280;43488;46.934;8.276;2023-08-06T09:44:31;96192.97;;;17.48;57.24
57232;BME280;43488;46.934;8.276;2023-08-06T09:47:02;96207.28;;;17.42;55.30
57232;BME280;43488;46.934;8.276;2023-08-06T09:52:00;96215.78;;;17.39;58.60
57232;BME280;43488;46.934;8.276;2023-08-06T09:54:28;96209.94;;;17.42;56.81
57232;BME280;43488;46.934;8.276;2023-08-06T09:56:57;96211.34;;;17.55;56.63
57232;BME280;43488;46.934;8.276;2023-08-06T09:59:25;96211.06;;;17.51;54.88
57232;BME280;43488;46.934;8.276;2023-08-06T10:01:54;96210.53;;;17.54;54.39
57232;BME280;43488;46.934;8.276;2023-08-06T10:04:23;96208.44;;;17.56;55.50
57232;BME280;43488;46.934;8.276;2023-08-06T10:06:51;96213.16;;;17.44;54.92
57232;BME280;43488;46.934;8.276;2023-08-06T10:09:19;96204.09;;;17.40;54.56
57232;BME280;43488;46.934;8.276;2023-08-06T10:11:51;96215.41;;;17.20;54.70
57232;BME280;43488;46.934;8.276;2023-08-06T10:14:24;96224.72;;;17.23;54.98
57232;BME280;43488;46.934;8.276;2023-08-06T10:16:53;96200.25;;;17.21;54.72
57232;BME280;43488;46.934;8.276;2023-08-06T10:19:21;96223.72;;;17.29;54.09
57232;BME280;43488;46.934;8.276;2023-08-06T10:22:12;96210.78;;;17.48;54.80
57232;BME280;43488;46.934;8.276;2023-08-06T10:24:50;96223.09;;;17.59;53.99
57232;BME280;43488;46.934;8.276;2023-08-06T10:27:53;96222.28;;;17.58;54.88
57232;BME280;43488;46.934;8.276;2023-08-06T10:30:31;96219.09;;;17.56;56.22
57232;BME280;43488;46.934;8.276;2023-08-06T10:32:59;96227.63;;;17.63;54.86
57232;BME280;43488;46.934;8.276;2023-08-06T10:38:16;96227.66;;;17.69;54.64
57232;BME280;43488;46.934;8.276;2023-08-06T10:43:33;96243.63;;;17.69;56.23
57232;BME280;43488;46.934;8.276;2023-08-06T10:46:02;96234.13;;;17.78;56.50
57232;BME280;43488;46.934;8.276;2023-08-06T10:48:41;96240.06;;;17.95;57.61
57232;BME280;43488;46.934;8.276;2023-08-06T10:51:13;96246.44;;;17.99;56.65
57232;BME280;43488;46.934;8.276;2023-08-06T10:53:45;96239.53;;;17.93;55.93
57232;BME280;43488;46.934;8.276;2023-08-06T10:56:15;96247.25;;;17.95;55.70
57232;BME280;43488;46.934;8.276;2023-08-06T10:58:46;96247.25;;;17.95;55.27
57232;BME280;43488;46.934;8.276;2023-08-06T11:01:14;96250.41;;;17.91;55.29
57232;BME280;43488;46.934;8.276;2023-08-06T11:03:45;96255.72;;;17.86;52.85
57232;BME280;43488;46.934;8.276;2023-08-06T11:06:18;96249.00;;;17.74;54.25
57232;BME280;43488;46.934;8.276;2023-08-06T11:08:53;96253.84;;;17.82;57.59
57232;BME280;43488;46.934;8.276;2023-08-06T11:11:23;96252.81;;;17.88;59.70
57232;BME280;43488;46.934;8.276;2023-08-06T11:13:51;96251.75;;;17.89;58.77
57232;BME280;43488;46.934;8.276;2023-08-06T11:16:23;96259.16;;;17.77;57.92
57232;BME280;43488;46.934;8.276;2023-08-06T11:18:54;96261.81;;;17.82;58.11
57232;BME280;43488;46.934;8.276;2023-08-06T11:21:23;96252.75;;;17.78;60.23
57232;BME280;43488;46.934;8.276;2023-08-06T11:23:56;96252.50;;;17.74;59.71
57232;BME280;43488;46.934;8.276;2023-08-06T11:26:23;96258.31;;;17.71;54.72
57232;BME280;43488;46.934;8.276;2023-08-06T11:28:51;96269.50;;;17.73;56.68
57232;BME280;43488;46.934;8.276;2023-08-06T11:31:22;96261.47;;;17.68;55.15
57232;BME280;43488;46.934;8.276;2023-08-06T11:33:51;96278.19;;;17.63;54.21
57232;BME280;43488;46.934;8.276;2023-08-06T11:36:34;96274.72;;;17.58;54.39
57232;BME280;43488;46.934;8.276;2023-08-06T11:39:03;96262.53;;;17.67;54.65
57232;BME280;43488;46.934;8.276;2023-08-06T11:41:35;96266.91;;;17.88;53.50
57232;BME280;43488;46.934;8.276;2023-08-06T11:44:05;96260.56;;;18.00;54.02
57232;BME280;43488;46.934;8.276;2023-08-06T11:46:55;96284.84;;;18.08;54.00
57232;BME280;43488;46.934;8.276;2023-08-06T11:49:41;96255.25;;;17.95;53.38
57232;BME280;43488;46.934;8.276;2023-08-06T11:52:16;96272.78;;;17.90;55.72
57232;BME280;43488;46.934;8.276;2023-08-06T11:55:09;96259.41;;;17.75;52.76
57232;BME280;43488;46.934;8.276;2023-08-06T11:57:44;96265.84;;;17.84;52.92
57232;BME280;43488;46.934;8.276;2023-08-06T12:00:14;96261.84;;;17.87;53.22
57232;BME280;43488;46.934;8.276;2023-08-06T12:02:43;96265.28;;;17.77;53.98
57232;BME280;43488;46.934;8.276;2023-08-06T12:05:29;96269.81;;;17.82;53.96
57232;BME280;43488;46.934;8.276;2023-08-06T12:08:00;96274.59;;;17.75;54.65
57232;BME280;43488;46.934;8.276;2023-08-06T12:10:30;96275.88;;;17.72;56.82
57232;BME280;43488;46.934;8.276;2023-08-06T12:12:58;96267.59;;;17.69;55.10
57232;BME280;43488;46.934;8.276;2023-08-06T12:15:26;96280.97;;;17.79;54.73
57232;BME280;43488;46.934;8.276;2023-08-06T12:17:55;96296.38;;;17.72;52.98
57232;BME280;43488;46.934;8.276;2023-08-06T12:20:23;96299.09;;;17.77;52.44
57232;BME280;43488;46.934;8.276;2023-08-06T12:22:52;96287.66;;;17.81;51.13
57232;BME280;43488;46.934;8.276;2023-08-06T12:25:19;96276.22;;;17.86;51.69
57232;BME280;43488;46.934;8.276;2023-08-06T12:27:46;96272.03;;;17.95;52.81
57232;BME280;43488;46.934;8.276;2023-08-06T12:30:14;96265.63;;;17.96;50.73
57232;BME280;43488;46.934;8.276;2023-08-06T12:32:41;96258.44;;;17.97;50.86
57232;BME280;43488;46.934;8.276;2023-08-06T12:35:09;96264.03;;;18.00;51.97
57232;BME280;43488;46.934;8.276;2023-08-06T12:37:37;96258.97;;;17.99;50.79
57232;BME280;43488;46.934;8.276;2023-08-06T12:40:10;96263.50;;;17.98;49.86
57232;BME280;43488;46.934;8.276;2023-08-06T12:42:38;96280.28;;;17.99;52.32
57232;BME280;43488;46.934;8.276;2023-08-06T12:45:05;96269.63;;;17.99;53.92
57232;BME280;43488;46.934;8.276;2023-08-06T12:47:33;96268.28;;;17.96;51.04
57232;BME280;43488;46.934;8.276;2023-08-06T12:50:00;96267.81;;;18.09;52.33
57232;BME280;43488;46.934;8.276;2023-08-06T12:52:27;96268.63;;;18.15;50.85
57232;BME280;43488;46.934;8.276;2023-08-06T12:54:55;96259.34;;;18.28;50.55
57232;BME280;43488;46.934;8.276;2023-08-06T12:57:22;96253.28;;;18.53;52.07
57232;BME280;43488;46.934;8.276;2023-08-06T12:59:49;96241.84;;;18.62;48.55
57232;BME280;43488;46.934;8.276;2023-08-06T13:02:16;96249.63;;;18.69;49.02
57232;BME280;43488;46.934;8.276;2023-08-06T13:04:46;96256.00;;;18.73;50.93
57232;BME280;43488;46.934;8.276;2023-08-06T13:07:13;96269.34;;;18.68;51.36
57232;BME280;43488;46.934;8.276;2023-08-06T13:09:41;96281.84;;;18.62;52.48
57232;BME280;43488;46.934;8.276;2023-08-06T13:12:09;96280.28;;;18.71;52.95
57232;BME280;43488;46.934;8.276;2023-08-06T13:14:36;96278.69;;;18.81;51.14
57232;BME280;43488;46.934;8.276;2023-08-06T13:17:04;96287.00;;;19.35;47.88
57232;BME280;43488;46.934;8.276;2023-08-06T13:19:34;96278.72;;;19.16;50.31